createdAt,value
2018-09-29T00:00:19.792Z,9.70
2018-09-29T00:02:48.917Z,9.60
2018-09-29T00:05:17.980Z,9.60
2018-09-29T00:07:47.052Z,9.60
2018-09-29T00:10:16.185Z,9.50
2018-09-29T00:12:45.204Z,9.50
2018-09-29T00:15:14.316Z,9.40
2018-09-29T00:17:43.944Z,9.40
2018-09-29T00:20:13.041Z,9.40
2018-09-29T00:22:42.161Z,9.40
2018-09-29T00:25:11.229Z,9.30
2018-09-29T00:27:40.325Z,9.30
2018-09-29T00:30:09.089Z,9.30
2018-09-29T00:32:38.209Z,9.30
2018-09-29T00:35:07.242Z,9.10
2018-09-29T00:37:37.184Z,9.00
2018-09-29T00:40:06.304Z,9.00
2018-09-29T00:42:35.332Z,9.00
2018-09-29T00:45:04.484Z,8.90
2018-09-29T00:47:33.520Z,8.90
2018-09-29T00:50:02.568Z,8.90
2018-09-29T00:52:31.844Z,8.90
2018-09-29T00:55:00.964Z,8.90
2018-09-29T00:57:30.136Z,8.80
2018-09-29T00:59:59.247Z,8.80
2018-09-29T01:02:28.380Z,8.70
2018-09-29T01:04:57.488Z,8.70
2018-09-29T01:07:26.601Z,8.70
2018-09-29T01:09:55.631Z,8.70
2018-09-29T01:12:24.708Z,8.60
2018-09-29T01:14:53.816Z,8.60
2018-09-29T01:17:22.901Z,8.60
2018-09-29T01:19:51.936Z,8.60
2018-09-29T01:22:21.036Z,8.50
2018-09-29T01:24:50.041Z,8.50
2018-09-29T01:27:19.136Z,8.50
2018-09-29T01:29:48.186Z,8.50
2018-09-29T01:32:17.269Z,8.40
2018-09-29T01:34:46.364Z,8.40
2018-09-29T01:37:15.675Z,8.30
2018-09-29T01:39:44.696Z,8.30
2018-09-29T01:42:13.792Z,8.30
2018-09-29T01:44:42.848Z,8.30
2018-09-29T01:47:11.912Z,8.30
2018-09-29T01:49:40.976Z,8.20
2018-09-29T01:52:10.026Z,8.20
2018-09-29T01:54:39.129Z,8.20
2018-09-29T01:57:08.192Z,8.10
2018-09-29T01:59:37.280Z,8.00
2018-09-29T02:02:06.334Z,8.10
2018-09-29T02:04:35.376Z,8.00
2018-09-29T02:07:04.608Z,8.00
2018-09-29T02:09:33.712Z,8.00
2018-09-29T02:12:02.852Z,7.90
2018-09-29T02:14:32.516Z,7.90
2018-09-29T02:17:01.556Z,7.80
2018-09-29T02:19:30.636Z,7.80
2018-09-29T02:21:59.712Z,7.70
2018-09-29T02:24:28.832Z,7.70
2018-09-29T02:26:57.904Z,7.60
2018-09-29T02:29:26.944Z,7.60
2018-09-29T02:31:56.108Z,7.60
2018-09-29T02:34:25.177Z,7.50
2018-09-29T02:36:54.276Z,7.50
2018-09-29T02:39:23.292Z,7.50
2018-09-29T02:41:52.361Z,7.50
2018-09-29T02:44:21.468Z,7.40
2018-09-29T02:46:50.476Z,7.40
2018-09-29T02:49:19.593Z,7.30
2018-09-29T02:51:48.744Z,7.30
2018-09-29T02:54:17.796Z,7.30
2018-09-29T02:56:46.828Z,7.20
2018-09-29T02:59:15.884Z,7.20
2018-09-29T03:01:44.944Z,7.20
2018-09-29T03:04:14.004Z,7.20
2018-09-29T03:06:43.145Z,7.20
2018-09-29T03:09:12.195Z,7.20
2018-09-29T03:11:41.300Z,7.20
2018-09-29T03:14:10.819Z,7.20
2018-09-29T03:16:39.912Z,7.20
2018-09-29T03:19:09.088Z,7.20
2018-09-29T03:21:38.032Z,7.20
2018-09-29T03:24:07.276Z,7.20
2018-09-29T03:26:36.420Z,7.10
2018-09-29T03:29:05.580Z,7.10
2018-09-29T03:31:34.700Z,7.10
2018-09-29T03:34:03.728Z,7.00
2018-09-29T03:36:32.828Z,6.90
2018-09-29T03:39:01.876Z,6.90
2018-09-29T03:41:30.994Z,6.80
2018-09-29T03:44:00.193Z,6.80
2018-09-29T03:46:29.260Z,6.70
2018-09-29T03:48:58.372Z,6.60
2018-09-29T03:51:27.482Z,6.60
2018-09-29T03:53:56.527Z,6.60
2018-09-29T03:56:25.640Z,6.50
2018-09-29T03:58:54.920Z,6.50
2018-09-29T04:01:24.241Z,6.50
2018-09-29T04:03:53.360Z,6.40
2018-09-29T04:06:22.512Z,6.40
2018-09-29T04:08:51.553Z,6.40
2018-09-29T04:11:20.651Z,6.40
2018-09-29T04:13:49.840Z,6.40
2018-09-29T04:16:18.893Z,6.30
2018-09-29T04:18:48.205Z,6.30
2018-09-29T04:21:17.337Z,6.30
2018-09-29T04:23:46.433Z,6.20
2018-09-29T04:26:15.511Z,6.10
2018-09-29T04:28:44.832Z,6.10
2018-09-29T04:31:13.836Z,6.10
2018-09-29T04:33:42.892Z,6.00
2018-09-29T04:36:12.013Z,5.90
2018-09-29T04:38:41.320Z,5.80
2018-09-29T04:41:10.383Z,5.80
2018-09-29T04:43:39.412Z,5.70
2018-09-29T04:46:08.508Z,5.70
2018-09-29T04:48:37.544Z,5.70
2018-09-29T04:51:06.752Z,5.70
2018-09-29T04:53:35.804Z,5.70
2018-09-29T04:56:04.940Z,5.80
2018-09-29T04:58:34.089Z,5.70
2018-09-29T05:01:03.353Z,5.80
2018-09-29T05:03:32.448Z,5.80
2018-09-29T05:06:01.529Z,5.70
2018-09-29T05:08:30.581Z,5.70
2018-09-29T05:10:59.629Z,5.70
2018-09-29T05:13:28.672Z,5.70
2018-09-29T05:15:57.948Z,5.60
2018-09-29T05:18:26.936Z,5.60
2018-09-29T05:20:55.990Z,5.50
2018-09-29T05:23:25.105Z,5.50
2018-09-29T05:25:54.164Z,5.40
2018-09-29T05:28:23.272Z,5.30
2018-09-29T05:30:52.367Z,5.30
2018-09-29T05:33:21.328Z,5.30
2018-09-29T05:35:50.404Z,5.20
2018-09-29T05:38:19.505Z,5.30
2018-09-29T05:40:48.696Z,5.30
2018-09-29T05:43:17.768Z,5.30
2018-09-29T05:45:47.116Z,5.30
2018-09-29T05:48:16.257Z,5.40
2018-09-29T05:50:45.276Z,5.40
2018-09-29T05:53:14.356Z,5.40
2018-09-29T05:55:43.448Z,5.40
2018-09-29T05:58:12.515Z,5.50
2018-09-29T06:00:41.735Z,5.60
2018-09-29T06:03:10.736Z,5.60
2018-09-29T06:05:39.947Z,5.70
2018-09-29T06:08:08.996Z,5.70
2018-09-29T06:10:38.100Z,5.70
2018-09-29T06:13:07.245Z,5.80
2018-09-29T06:15:36.316Z,5.80
2018-09-29T06:18:06.077Z,6.00
2018-09-29T06:20:35.145Z,6.00
2018-09-29T06:23:04.216Z,6.10
2018-09-29T06:25:33.312Z,6.20
2018-09-29T06:28:02.403Z,6.20
2018-09-29T06:30:31.434Z,6.20
2018-09-29T06:33:00.496Z,6.40
2018-09-29T06:35:29.528Z,6.40
2018-09-29T06:37:58.660Z,6.70
2018-09-29T06:40:27.757Z,6.90
2018-09-29T06:42:57.260Z,7.20
2018-09-29T06:45:26.396Z,7.50
2018-09-29T06:47:55.543Z,7.70
2018-09-29T06:50:24.642Z,7.90
2018-09-29T06:52:54.454Z,7.80
2018-09-29T06:55:23.496Z,7.90
2018-09-29T06:57:52.564Z,8.10
2018-09-29T07:00:21.952Z,7.90
2018-09-29T07:02:51.050Z,8.10
2018-09-29T07:05:20.088Z,8.80
2018-09-29T07:07:49.184Z,9.20
2018-09-29T07:10:18.277Z,9.30
2018-09-29T07:12:47.356Z,9.10
2018-09-29T07:15:16.436Z,9.40
2018-09-29T07:17:45.544Z,9.10
2018-09-29T07:20:14.614Z,8.70
2018-09-29T07:22:43.973Z,8.90
2018-09-29T07:25:13.000Z,9.20
2018-09-29T07:27:42.096Z,9.70
2018-09-29T07:30:11.249Z,10.20
2018-09-29T07:32:40.319Z,11.00
2018-09-29T07:35:09.407Z,11.70
2018-09-29T07:37:38.536Z,13.40
2018-09-29T07:40:07.789Z,12.40
2018-09-29T07:42:36.828Z,12.20
2018-09-29T07:45:06.125Z,12.40
2018-09-29T07:47:35.189Z,12.50
2018-09-29T07:50:04.284Z,14.00
2018-09-29T07:52:33.432Z,14.50
2018-09-29T07:55:02.513Z,15.40
2018-09-29T07:57:31.524Z,16.40
2018-09-29T08:00:00.664Z,14.70
2018-09-29T08:02:29.723Z,14.10
2018-09-29T08:04:58.808Z,13.00
2018-09-29T08:07:27.888Z,13.20
2018-09-29T08:09:56.986Z,14.10
2018-09-29T08:12:26.175Z,13.50
2018-09-29T08:14:55.429Z,13.30
2018-09-29T08:17:24.492Z,13.40
2018-09-29T08:19:53.565Z,14.10
2018-09-29T08:22:22.665Z,13.80
2018-09-29T08:24:51.720Z,13.50
2018-09-29T08:27:20.772Z,12.50
2018-09-29T08:29:49.900Z,14.10
2018-09-29T08:32:19.046Z,13.90
2018-09-29T08:34:48.074Z,14.00
2018-09-29T08:37:17.292Z,13.90
2018-09-29T08:39:46.375Z,13.90
2018-09-29T08:42:15.524Z,14.60
2018-09-29T08:44:44.725Z,15.90
2018-09-29T08:47:13.944Z,16.80
2018-09-29T08:49:42.992Z,16.60
2018-09-29T08:52:12.078Z,15.70
2018-09-29T08:54:41.184Z,16.00
2018-09-29T08:57:10.268Z,14.60
2018-09-29T08:59:39.396Z,14.80
2018-09-29T09:02:08.476Z,15.10
2018-09-29T09:04:37.552Z,14.60
2018-09-29T09:07:06.888Z,14.00
2018-09-29T09:09:35.937Z,13.60
2018-09-29T09:12:05.039Z,14.70
2018-09-29T09:14:34.072Z,16.00
2018-09-29T09:17:03.207Z,15.20
2018-09-29T09:19:32.228Z,16.30
2018-09-29T09:22:01.327Z,17.30
2018-09-29T09:24:30.509Z,17.50
2018-09-29T09:26:59.528Z,17.80
2018-09-29T09:29:28.701Z,16.50
2018-09-29T09:31:57.808Z,15.50
2018-09-29T09:34:26.938Z,15.90
2018-09-29T09:36:56.044Z,16.00
2018-09-29T09:39:25.125Z,15.20
2018-09-29T09:41:54.176Z,15.00
2018-09-29T09:44:23.531Z,15.50
2018-09-29T09:46:52.651Z,15.10
2018-09-29T09:49:21.872Z,15.50
2018-09-29T09:51:51.308Z,15.80
2018-09-29T09:54:20.541Z,16.50
2018-09-29T09:56:49.595Z,16.00
2018-09-29T09:59:19.529Z,15.50
2018-09-29T10:01:54.012Z,16.10
2018-09-29T10:04:23.092Z,16.60
2018-09-29T10:06:52.188Z,16.40
2018-09-29T10:09:21.341Z,17.50
2018-09-29T10:11:50.405Z,17.80
2018-09-29T10:14:19.498Z,16.60
2018-09-29T10:16:48.589Z,17.00
2018-09-29T10:19:17.658Z,18.10
2018-09-29T10:21:46.768Z,17.90
2018-09-29T10:24:15.912Z,17.20
2018-09-29T10:26:45.275Z,17.10
2018-09-29T10:29:14.372Z,17.30
2018-09-29T10:31:43.472Z,17.90
2018-09-29T10:34:12.576Z,18.90
2018-09-29T10:36:41.696Z,19.40
2018-09-29T10:39:12.177Z,17.00
2018-09-29T10:41:41.752Z,17.70
2018-09-29T10:44:11.928Z,18.80
2018-09-29T10:46:41.036Z,19.50
2018-09-29T10:49:10.141Z,18.30
2018-09-29T10:51:39.136Z,18.70
2018-09-29T10:54:08.228Z,19.50
2018-09-29T10:56:37.291Z,18.50
2018-09-29T10:59:06.431Z,16.50
2018-09-29T11:01:35.460Z,17.50
2018-09-29T11:04:04.593Z,18.60
2018-09-29T11:06:33.717Z,19.00
2018-09-29T11:09:02.777Z,17.10
2018-09-29T11:11:31.970Z,16.80
2018-09-29T11:14:01.101Z,17.60
2018-09-29T11:16:30.112Z,17.30
2018-09-29T11:18:59.276Z,17.50
2018-09-29T11:21:28.327Z,17.50
2018-09-29T11:23:57.477Z,17.10
2018-09-29T11:26:26.740Z,17.70
2018-09-29T11:28:56.183Z,18.30
2018-09-29T11:31:25.277Z,18.20
2018-09-29T11:33:54.360Z,18.60
2018-09-29T11:36:23.440Z,18.20
2018-09-29T11:38:52.536Z,18.50
2018-09-29T11:41:21.660Z,17.90
2018-09-29T11:43:50.752Z,19.20
2018-09-29T11:46:19.800Z,19.70
2018-09-29T11:48:48.908Z,17.50
2018-09-29T11:51:17.960Z,18.20
2018-09-29T11:53:47.024Z,18.00
2018-09-29T11:56:16.332Z,18.60
2018-09-29T11:58:45.424Z,18.90
2018-09-29T12:01:14.577Z,19.30
2018-09-29T12:03:44.196Z,19.20
2018-09-29T12:06:13.294Z,20.10
2018-09-29T12:08:42.324Z,19.90
2018-09-29T12:11:11.416Z,19.50
2018-09-29T12:13:40.457Z,19.40
2018-09-29T12:16:09.671Z,20.60
2018-09-29T12:18:38.805Z,20.70
2018-09-29T12:21:07.903Z,20.50
2018-09-29T12:23:36.972Z,20.00
2018-09-29T12:26:06.052Z,18.60
2018-09-29T12:28:35.076Z,18.30
2018-09-29T12:31:04.180Z,18.40
2018-09-29T12:33:33.264Z,18.80
2018-09-29T12:36:02.344Z,18.80
2018-09-29T12:38:31.423Z,17.60
2018-09-29T12:41:00.537Z,18.40
2018-09-29T12:43:29.611Z,18.50
2018-09-29T12:45:58.648Z,18.50
2018-09-29T12:48:27.744Z,18.90
2018-09-29T12:50:56.793Z,18.50
2018-09-29T12:53:25.853Z,18.40
2018-09-29T12:55:55.361Z,19.70
2018-09-29T12:58:24.424Z,20.00
2018-09-29T13:00:53.448Z,19.60
2018-09-29T13:03:22.516Z,18.90
2018-09-29T13:05:51.645Z,18.30
2018-09-29T13:08:20.716Z,18.70
2018-09-29T13:10:49.815Z,18.40
2018-09-29T13:13:19.088Z,18.50
2018-09-29T13:15:48.200Z,19.20
2018-09-29T13:18:17.301Z,18.50
2018-09-29T13:20:46.596Z,18.20
2018-09-29T13:23:15.605Z,19.30
2018-09-29T13:25:44.685Z,19.50
2018-09-29T13:28:13.788Z,18.70
2018-09-29T13:30:42.877Z,19.10
2018-09-29T13:33:11.964Z,18.30
2018-09-29T13:35:41.076Z,17.80
2018-09-29T13:38:10.468Z,17.70
2018-09-29T13:40:39.564Z,17.50
2018-09-29T13:43:08.604Z,18.40
2018-09-29T13:45:37.708Z,18.30
2018-09-29T13:48:07.375Z,18.70
2018-09-29T13:50:36.547Z,18.60
2018-09-29T13:53:06.440Z,17.60
2018-09-29T13:55:35.549Z,17.30
2018-09-29T13:58:04.621Z,17.40
2018-09-29T14:00:33.742Z,17.40
2018-09-29T14:03:02.812Z,17.10
2018-09-29T14:05:31.847Z,16.80
2018-09-29T14:08:00.959Z,16.70
2018-09-29T14:10:30.032Z,16.50
2018-09-29T14:12:59.112Z,16.90
2018-09-29T14:15:28.416Z,17.00
2018-09-29T14:17:57.460Z,16.80
2018-09-29T14:20:26.629Z,16.40
2018-09-29T14:22:55.677Z,16.60
2018-09-29T14:25:24.773Z,16.30
2018-09-29T14:27:53.917Z,16.50
2018-09-29T14:30:23.054Z,16.30
2018-09-29T14:32:52.128Z,16.20
2018-09-29T14:35:21.267Z,16.60
2018-09-29T14:37:50.352Z,16.40
2018-09-29T14:40:19.492Z,16.10
2018-09-29T14:42:48.544Z,16.10
2018-09-29T14:45:17.993Z,15.50
2018-09-29T14:47:47.025Z,15.70
2018-09-29T14:50:16.096Z,15.60
2018-09-29T14:52:45.588Z,15.50
2018-09-29T14:55:14.663Z,15.70
2018-09-29T14:57:43.818Z,15.60
2018-09-29T15:00:12.816Z,15.50
2018-09-29T15:02:41.960Z,15.50
2018-09-29T15:05:11.036Z,15.40
2018-09-29T15:07:40.164Z,15.40
2018-09-29T15:10:09.402Z,15.50
2018-09-29T15:12:38.456Z,15.40
2018-09-29T15:15:08.218Z,15.40
2018-09-29T15:17:37.517Z,15.50
2018-09-29T15:20:06.739Z,15.40
2018-09-29T15:22:35.799Z,15.30
2018-09-29T15:25:05.156Z,15.30
2018-09-29T15:27:34.196Z,15.20
2018-09-29T15:30:03.335Z,15.20
2018-09-29T15:32:32.405Z,15.30
2018-09-29T15:35:01.428Z,15.00
2018-09-29T15:37:30.540Z,15.00
2018-09-29T15:39:59.852Z,15.00
2018-09-29T15:42:29.001Z,14.90
2018-09-29T15:44:58.078Z,15.10
2018-09-29T15:47:27.092Z,15.00
2018-09-29T15:49:56.104Z,15.00
2018-09-29T15:52:25.221Z,14.80
2018-09-29T15:54:54.300Z,14.80
2018-09-29T15:57:23.410Z,14.80
2018-09-29T15:59:52.517Z,14.80
2018-09-29T16:02:21.643Z,14.70
2018-09-29T16:04:50.787Z,14.70
2018-09-29T16:07:19.860Z,14.70
2018-09-29T16:09:48.981Z,14.60
2018-09-29T16:12:17.959Z,14.70
2018-09-29T16:14:47.121Z,14.60
2018-09-29T16:17:16.148Z,14.60
2018-09-29T16:19:45.460Z,14.60
2018-09-29T16:22:14.532Z,14.70
2018-09-29T16:24:43.660Z,14.50
2018-09-29T16:27:12.720Z,14.40
2018-09-29T16:29:41.841Z,14.40
2018-09-29T16:32:11.141Z,14.30
2018-09-29T16:34:41.216Z,14.30
2018-09-29T16:37:10.248Z,14.20
2018-09-29T16:39:39.368Z,14.20
2018-09-29T16:42:08.512Z,14.20
2018-09-29T16:44:37.640Z,14.20
2018-09-29T16:47:06.844Z,14.20
2018-09-29T16:49:35.936Z,14.00
2018-09-29T16:52:05.096Z,14.00
2018-09-29T16:54:34.257Z,14.00
2018-09-29T16:57:03.316Z,14.00
2018-09-29T16:59:32.388Z,13.90
2018-09-29T17:02:02.553Z,13.80
2018-09-29T17:04:31.672Z,13.80
2018-09-29T17:07:00.620Z,13.70
2018-09-29T17:09:29.805Z,13.60
2018-09-29T17:11:58.876Z,13.40
2018-09-29T17:14:27.945Z,13.10
2018-09-29T17:16:57.040Z,13.00
2018-09-29T17:19:26.145Z,12.80
2018-09-29T17:21:55.406Z,12.70
2018-09-29T17:24:24.476Z,12.50
2018-09-29T17:26:53.596Z,12.30
2018-09-29T17:29:22.668Z,12.20
2018-09-29T17:31:51.843Z,12.00
2018-09-29T17:34:20.776Z,11.90
2018-09-29T17:36:49.839Z,11.70
2018-09-29T17:39:18.898Z,11.60
2018-09-29T17:41:47.952Z,11.50
2018-09-29T17:44:17.047Z,11.40
2018-09-29T17:46:46.092Z,11.30
2018-09-29T17:49:15.148Z,11.20
2018-09-29T17:51:44.604Z,11.10
2018-09-29T17:54:13.756Z,11.00
2018-09-29T17:56:42.815Z,10.80
2018-09-29T17:59:12.245Z,10.70
2018-09-29T18:01:41.268Z,10.60
2018-09-29T18:04:10.438Z,10.60
2018-09-29T18:06:39.496Z,10.50
2018-09-29T18:09:10.797Z,10.40
2018-09-29T18:11:39.964Z,10.30
2018-09-29T18:14:09.095Z,10.30
2018-09-29T18:16:38.165Z,10.20
2018-09-29T18:19:07.273Z,10.10
2018-09-29T18:21:36.571Z,10.00
2018-09-29T18:24:05.658Z,10.00
2018-09-29T18:26:34.797Z,9.90
2018-09-29T18:29:03.926Z,9.80
2018-09-29T18:31:32.982Z,9.70
2018-09-29T18:34:02.074Z,9.60
2018-09-29T18:36:31.191Z,9.60
2018-09-29T18:39:00.256Z,9.60
2018-09-29T18:41:29.392Z,9.50
2018-09-29T18:43:58.708Z,9.50
2018-09-29T18:46:27.801Z,9.50
2018-09-29T18:48:56.811Z,9.40
2018-09-29T18:51:25.908Z,9.40
2018-09-29T18:53:55.004Z,9.30
2018-09-29T18:56:24.038Z,9.30
2018-09-29T18:58:53.557Z,9.10
2018-09-29T19:01:22.613Z,9.10
2018-09-29T19:03:51.644Z,9.00
2018-09-29T19:06:20.788Z,8.80
2018-09-29T19:08:49.826Z,8.70
2018-09-29T19:11:18.860Z,8.60
2018-09-29T19:13:47.936Z,8.50
2018-09-29T19:16:17.054Z,8.40
2018-09-29T19:18:46.164Z,8.30
2018-09-29T19:21:15.220Z,8.30
2018-09-29T19:23:44.304Z,8.20
2018-09-29T19:26:13.425Z,8.20
2018-09-29T19:28:42.544Z,8.20
2018-09-29T19:31:11.607Z,8.10
2018-09-29T19:33:40.759Z,8.00
2018-09-29T19:36:10.045Z,8.00
2018-09-29T19:38:39.134Z,7.90
2018-09-29T19:41:08.191Z,7.60
2018-09-29T19:43:37.488Z,7.60
2018-09-29T19:46:06.572Z,7.60
2018-09-29T19:48:35.625Z,7.60
2018-09-29T19:51:04.764Z,7.60
2018-09-29T19:53:33.865Z,7.60
2018-09-29T19:56:02.896Z,7.70
2018-09-29T19:58:32.025Z,7.70
2018-09-29T20:01:04.629Z,7.70
2018-09-29T20:03:33.721Z,7.60
2018-09-29T20:06:02.680Z,7.60
2018-09-29T20:08:31.772Z,7.50
2018-09-29T20:11:00.853Z,7.40
2018-09-29T20:13:29.908Z,7.40
2018-09-29T20:15:58.933Z,7.30
2018-09-29T20:18:28.629Z,7.20
2018-09-29T20:20:57.720Z,7.20
2018-09-29T20:23:27.316Z,7.20
2018-09-29T20:25:56.356Z,7.00
2018-09-29T20:28:25.440Z,6.90
2018-09-29T20:30:54.640Z,6.80
2018-09-29T20:33:23.708Z,6.80
2018-09-29T20:35:52.780Z,6.80
2018-09-29T20:38:21.925Z,6.80
2018-09-29T20:40:50.997Z,6.70
2018-09-29T20:43:20.026Z,6.70
2018-09-29T20:45:49.256Z,6.50
2018-09-29T20:48:18.365Z,6.30
2018-09-29T20:50:47.505Z,6.30
2018-09-29T20:53:16.596Z,6.30
2018-09-29T20:55:45.672Z,6.30
2018-09-29T20:58:14.728Z,6.30
2018-09-29T21:00:43.836Z,6.20
2018-09-29T21:03:12.932Z,6.20
2018-09-29T21:05:42.040Z,6.20
2018-09-29T21:08:11.125Z,6.10
2018-09-29T21:10:40.177Z,6.00
2018-09-29T21:13:09.355Z,6.00
2018-09-29T21:15:38.316Z,6.00
2018-09-29T21:18:07.444Z,6.00
2018-09-29T21:20:36.550Z,6.00
2018-09-29T21:23:05.657Z,6.00
2018-09-29T21:25:34.867Z,6.00
2018-09-29T21:28:04.006Z,6.00
2018-09-29T21:30:33.112Z,6.10
2018-09-29T21:33:02.232Z,6.00
2018-09-29T21:35:32.012Z,5.80
2018-09-29T21:38:01.545Z,5.80
2018-09-29T21:40:30.640Z,5.70
2018-09-29T21:42:59.644Z,5.60
2018-09-29T21:45:28.730Z,5.60
2018-09-29T21:47:57.785Z,5.60
2018-09-29T21:50:26.829Z,5.60
2018-09-29T21:52:55.925Z,5.50
2018-09-29T21:55:25.009Z,5.40
2018-09-29T21:57:54.067Z,5.40
2018-09-29T22:00:28.384Z,5.40
2018-09-29T22:02:57.391Z,5.40
2018-09-29T22:05:26.564Z,5.40
2018-09-29T22:07:55.864Z,5.30
2018-09-29T22:10:24.916Z,5.30
2018-09-29T22:12:53.972Z,5.30
2018-09-29T22:15:23.504Z,5.20
2018-09-29T22:17:52.564Z,5.20
2018-09-29T22:20:21.648Z,5.10
2018-09-29T22:22:50.663Z,5.10
2018-09-29T22:25:19.756Z,5.10
2018-09-29T22:27:48.852Z,5.10
2018-09-29T22:30:17.918Z,5.20
2018-09-29T22:32:47.024Z,5.20
2018-09-29T22:35:16.072Z,5.20
2018-09-29T22:37:45.365Z,5.20
2018-09-29T22:40:14.460Z,5.20
2018-09-29T22:42:44.577Z,5.20
2018-09-29T22:45:13.636Z,5.10
2018-09-29T22:47:42.724Z,5.00
2018-09-29T22:50:11.756Z,4.90
2018-09-29T22:52:41.210Z,5.00
2018-09-29T22:55:10.220Z,4.90
2018-09-29T22:57:39.364Z,4.90
2018-09-29T23:00:08.824Z,4.80
2018-09-29T23:02:37.864Z,4.80
2018-09-29T23:05:06.965Z,4.80
2018-09-29T23:07:36.293Z,4.80
2018-09-29T23:10:05.408Z,4.70
2018-09-29T23:12:34.541Z,4.60
2018-09-29T23:15:03.804Z,4.60
2018-09-29T23:17:32.888Z,4.60
2018-09-29T23:20:02.015Z,4.60
2018-09-29T23:22:31.092Z,4.60
2018-09-29T23:25:00.184Z,4.50
2018-09-29T23:27:29.322Z,4.40
2018-09-29T23:29:58.592Z,4.30
2018-09-29T23:32:27.666Z,4.20
2018-09-29T23:34:56.824Z,4.30
2018-09-29T23:37:26.176Z,4.30
2018-09-29T23:39:55.229Z,4.20
2018-09-29T23:42:24.496Z,4.10
2018-09-29T23:44:53.652Z,4.10
2018-09-29T23:47:22.750Z,4.10
2018-09-29T23:49:51.793Z,4.10
2018-09-29T23:52:20.876Z,4.10
2018-09-29T23:54:49.945Z,4.10
2018-09-29T23:57:19.076Z,4.10
2018-09-29T23:59:48.166Z,4.10
